Time;durP1;ratioP1;P1;durP2;ratioP2;P2;SDS_P1;SDS_P2;PMS_P1;PMS_P2;Temp;Humidity;BMP_temperature;BMP_pressure;BME280_temperature;BME280_humidity;BME280_pressure;Samples;Min_cycle;Max_cycle;Signal;HPM_P1;HPM_P2
2021/07/09 00:02:23;;;;;;;16.37;6.10;;;;;;;13.15;100.00;94208.00;5143663;27;20200;-84
2021/07/09 00:04:49;;;;;;;8.13;5.37;;;;;;;13.17;100.00;94202.53;5144053;27;20208;-83
2021/07/09 00:07:16;;;;;;;10.50;6.03;;;;;;;13.14;100.00;94204.56;5142322;27;20200;-83
2021/07/09 00:09:46;;;;;;;11.32;6.32;;;;;;;13.15;100.00;94202.75;5141268;27;20560;-81
2021/07/09 00:12:15;;;;;;;14.43;6.57;;;;;;;13.11;100.00;94204.19;5142286;27;20643;-83
2021/07/09 00:14:41;;;;;;;14.30;7.67;;;;;;;13.08;100.00;94201.97;5143774;27;20211;-84
2021/07/09 00:17:08;;;;;;;14.75;7.70;;;;;;;13.07;100.00;94200.34;5142584;27;20204;-83
2021/07/09 00:19:34;;;;;;;10.02;6.95;;;;;;;13.06;100.00;94198.75;5138439;27;20725;-84
2021/07/09 00:22:01;;;;;;;11.50;7.13;;;;;;;13.08;100.00;94202.75;5137013;27;20207;-83
2021/07/09 00:24:31;;;;;;;14.10;7.97;;;;;;;13.11;100.00;94201.56;5137327;27;20257;-83
2021/07/09 00:26:58;;;;;;;14.90;8.25;;;;;;;13.11;100.00;94196.31;5136956;27;20715;-84
2021/07/09 00:29:25;;;;;;;16.13;8.05;;;;;;;13.10;100.00;94189.44;5135290;27;20216;-84
2021/07/09 00:31:52;;;;;;;16.17;8.10;;;;;;;13.07;100.00;94193.31;5135031;27;20200;-84
2021/07/09 00:34:19;;;;;;;16.45;7.53;;;;;;;13.09;100.00;94195.69;5135321;27;20249;-84
2021/07/09 00:36:46;;;;;;;17.67;8.07;;;;;;;13.06;100.00;94190.88;5135490;27;20295;-84
2021/07/09 00:39:12;;;;;;;17.83;7.97;;;;;;;13.05;100.00;94197.13;5135494;27;20229;-84
2021/07/09 00:41:39;;;;;;;17.83;7.73;;;;;;;12.98;100.00;94191.91;5135609;27;20204;-84
2021/07/09 00:44:07;;;;;;;12.97;7.20;;;;;;;13.00;100.00;94189.88;5135383;27;20192;-85
2021/07/09 00:46:37;;;;;;;12.87;7.33;;;;;;;12.98;100.00;94191.91;5135147;27;20204;-85
2021/07/09 00:49:04;;;;;;;17.53;8.07;;;;;;;13.01;100.00;94201.19;5135490;27;20212;-86
2021/07/09 00:51:30;;;;;;;17.50;7.47;;;;;;;12.98;100.00;94198.97;5135047;27;20211;-85
2021/07/09 00:53:58;;;;;;;12.37;7.57;;;;;;;13.05;100.00;94197.13;5135227;27;20193;-85
2021/07/09 00:56:24;;;;;;;13.23;7.23;;;;;;;12.98;100.00;94191.09;5134643;27;20200;-84
2021/07/09 00:58:52;;;;;;;13.60;7.00;;;;;;;12.96;100.00;94189.47;5134900;27;20232;-84
2021/07/09 01:01:19;;;;;;;13.80;8.23;;;;;;;13.04;100.00;94196.34;5133965;27;20494;-84
2021/07/09 01:03:47;;;;;;;12.03;7.43;;;;;;;13.06;100.00;94193.50;5135275;27;20202;-83
2021/07/09 01:06:14;;;;;;;16.02;6.60;;;;;;;13.06;100.00;94196.94;5135016;27;20540;-83
2021/07/09 01:08:40;;;;;;;11.02;7.07;;;;;;;13.08;100.00;94196.72;5134907;27;20200;-84
2021/07/09 01:11:07;;;;;;;13.63;6.90;;;;;;;13.04;100.00;94195.50;5134960;27;20241;-83
2021/07/09 01:13:34;;;;;;;13.00;7.18;;;;;;;13.05;100.00;94197.94;5134809;27;20639;-84
2021/07/09 01:16:00;;;;;;;16.08;7.15;;;;;;;13.06;100.00;94201.38;5134638;27;20200;-86
2021/07/09 01:18:27;;;;;;;13.48;7.55;;;;;;;13.10;100.00;94207.81;5134761;27;20253;-83
2021/07/09 01:20:55;;;;;;;16.55;7.95;;;;;;;13.08;100.00;94201.97;5135216;27;20201;-84
2021/07/09 01:23:27;;;;;;;12.85;7.40;;;;;;;13.14;100.00;94206.41;5135654;27;20201;-85
2021/07/09 01:25:55;;;;;;;12.82;7.32;;;;;;;13.10;100.00;94216.47;5135175;27;20224;-84
2021/07/09 01:28:21;;;;;;;12.73;7.82;;;;;;;13.06;100.00;94212.66;5134324;27;20208;-83
2021/07/09 01:30:48;;;;;;;19.38;8.70;;;;;;;13.10;100.00;94207.81;5134266;27;20250;-84
2021/07/09 01:33:14;;;;;;;15.73;8.40;;;;;;;13.11;100.00;94212.03;5134658;27;20556;-83
2021/07/09 01:35:41;;;;;;;14.13;8.13;;;;;;;13.08;100.00;94213.25;5134701;27;20605;-85
2021/07/09 01:38:08;;;;;;;17.10;9.20;;;;;;;13.07;100.00;94216.06;5134352;27;20200;-85
2021/07/09 01:40:37;;;;;;;17.50;8.65;;;;;;;13.07;100.00;94210.81;5134395;27;20227;-84
2021/07/09 01:43:06;;;;;;;19.30;9.60;;;;;;;13.01;100.00;94216.91;5134212;27;20197;-84
2021/07/09 01:45:33;;;;;;;18.63;10.35;;;;;;;13.02;100.00;94215.88;5133883;27;20462;-83
2021/07/09 01:48:00;;;;;;;15.00;7.88;;;;;;;13.02;100.00;94215.88;5134465;27;20264;-84
2021/07/09 01:50:28;;;;;;;15.13;7.90;;;;;;;12.96;100.00;94207.03;5134456;27;20245;-85
2021/07/09 01:52:58;;;;;;;14.20;7.60;;;;;;;12.95;100.00;94216.69;5134364;27;20192;-85
2021/07/09 01:55:25;;;;;;;10.75;6.65;;;;;;;12.94;100.00;94211.69;5134207;27;20242;-84
2021/07/09 01:57:51;;;;;;;13.23;7.25;;;;;;;12.91;100.00;94212.88;5134086;27;20200;-84
2021/07/09 02:00:24;;;;;;;11.65;6.82;;;;;;;12.92;100.00;94213.66;5134209;28;20228;-84
2021/07/09 02:02:50;;;;;;;17.13;6.97;;;;;;;12.88;100.00;94213.28;5134261;28;20631;-85
2021/07/09 02:05:19;;;;;;;14.23;7.63;;;;;;;12.88;100.00;94210.66;5134253;28;20254;-85
2021/07/09 02:07:48;;;;;;;12.95;6.38;;;;;;;12.84;100.00;94211.25;5134166;28;20199;-84
2021/07/09 02:10:17;;;;;;;8.55;5.82;;;;;;;12.85;100.00;94207.66;5133974;28;20197;-84
2021/07/09 02:12:44;;;;;;;13.30;6.07;;;;;;;12.76;100.00;94205.22;5134893;27;20208;-84
2021/07/09 02:15:14;;;;;;;8.93;5.35;;;;;;;12.79;100.00;94214.50;5138361;27;20548;-83
2021/07/09 02:17:43;;;;;;;13.40;5.60;;;;;;;12.68;100.00;94218.53;5138267;27;20196;-84
2021/07/09 02:20:12;;;;;;;9.70;5.07;;;;;;;12.65;100.00;94215.53;5138159;27;20232;-84
2021/07/09 02:22:39;;;;;;;15.60;5.53;;;;;;;12.63;100.00;94226.19;5138068;27;20204;-83
2021/07/09 02:25:06;;;;;;;9.77;5.20;;;;;;;12.54;100.00;94227.41;5138365;27;20196;-83
2021/07/09 02:27:34;;;;;;;6.37;4.53;;;;;;;12.51;100.00;94226.00;5138200;27;20205;-83
2021/07/09 02:30:00;;;;;;;9.82;5.65;;;;;;;12.54;100.00;94227.41;5137644;27;20818;-83
2021/07/09 02:32:27;;;;;;;9.30;4.83;;;;;;;12.54;100.00;94225.59;5138146;27;20196;-84
2021/07/09 02:34:54;;;;;;;8.90;4.83;;;;;;;12.55;100.00;94223.78;5137877;27;20197;-82
2021/07/09 02:37:21;;;;;;;10.67;5.50;;;;;;;12.54;100.00;94230.00;5137802;27;20260;-83
2021/07/09 02:39:47;;;;;;;12.13;5.40;;;;;;;12.51;100.00;94230.44;5138493;27;20224;-83
2021/07/09 02:42:14;;;;;;;9.00;5.53;;;;;;;12.54;100.00;94228.22;5138025;27;20228;-83
2021/07/09 02:44:40;;;;;;;8.23;5.80;;;;;;;12.54;100.00;94222.97;5138109;27;20242;-84
2021/07/09 02:47:07;;;;;;;10.90;6.37;;;;;;;12.59;100.00;94219.75;5137679;27;20197;-84
2021/07/09 02:49:33;;;;;;;12.23;7.00;;;;;;;12.61;100.00;94219.53;5137745;27;20209;-83
2021/07/09 02:52:01;;;;;;;10.87;6.20;;;;;;;12.58;100.00;94226.00;5137402;27;20249;-84
2021/07/09 02:54:27;;;;;;;14.80;6.63;;;;;;;12.61;100.00;94222.16;5137818;27;20204;-83
2021/07/09 02:56:54;;;;;;;11.37;7.40;;;;;;;12.58;100.00;94224.19;5138438;27;20193;-84
2021/07/09 02:59:21;;;;;;;15.53;6.97;;;;;;;12.59;100.00;94215.31;5144209;27;20321;-84
2021/07/09 03:01:47;;;;;;;11.83;7.03;;;;;;;12.55;100.00;94216.72;5138597;27;20207;-84
2021/07/09 03:04:14;;;;;;;12.60;7.03;;;;;;;12.56;100.00;94215.72;5137608;27;20201;-85
2021/07/09 03:06:41;;;;;;;14.70;7.40;;;;;;;12.56;100.00;94226.19;5137623;27;20258;-84
2021/07/09 03:09:10;;;;;;;12.05;7.18;;;;;;;12.52;100.00;94213.69;5137517;27;20205;-85
2021/07/09 03:11:38;;;;;;;12.70;7.30;;;;;;;12.52;100.00;94216.31;5138243;27;20211;-84
2021/07/09 03:14:06;;;;;;;11.10;7.53;;;;;;;12.48;100.00;94217.75;5141216;27;20437;-83
2021/07/09 03:16:33;;;;;;;11.13;7.20;;;;;;;12.44;100.00;94217.34;5140187;27;20659;-84
2021/07/09 03:18:59;;;;;;;15.73;6.20;;;;;;;12.43;100.00;94220.16;5143208;27;20327;-84
2021/07/09 03:21:26;;;;;;;12.83;6.73;;;;;;;12.35;100.00;94218.53;5142372;27;20197;-85
2021/07/09 03:23:53;;;;;;;14.70;7.87;;;;;;;12.41;100.00;94220.34;5138808;27;20204;-85
2021/07/09 03:26:21;;;;;;;12.70;8.03;;;;;;;12.40;100.00;94227.38;5140865;27;20696;-85
2021/07/09 03:28:47;;;;;;;13.63;7.80;;;;;;;12.42;100.00;94227.19;5149980;27;20225;-84
2021/07/09 03:31:14;;;;;;;13.53;7.03;;;;;;;12.37;100.00;94232.22;5145000;27;20222;-84
2021/07/09 03:33:40;;;;;;;18.77;8.10;;;;;;;12.37;100.00;94227.81;5145885;27;20193;-84
2021/07/09 03:36:07;;;;;;;15.47;7.87;;;;;;;12.33;100.00;94228.41;5145701;27;20567;-84
2021/07/09 03:38:33;;;;;;;14.57;8.43;;;;;;;12.31;100.00;94227.81;5148735;27;20200;-84
2021/07/09 03:41:00;;;;;;;14.97;8.20;;;;;;;12.33;100.00;94236.25;5146238;27;20224;-83
2021/07/09 03:43:27;;;;;;;13.90;7.97;;;;;;;12.29;100.00;94235.03;5143697;27;20197;-84
2021/07/09 03:45:54;;;;;;;15.83;7.93;;;;;;;12.28;100.00;94231.63;5144806;27;20208;-83
2021/07/09 03:48:20;;;;;;;13.53;7.07;;;;;;;12.33;100.00;94226.59;5139303;27;20212;-83
2021/07/09 03:50:47;;;;;;;13.90;7.57;;;;;;;12.32;100.00;94234.63;5142000;27;20200;-83
2021/07/09 03:53:14;;;;;;;15.77;8.10;;;;;;;12.32;100.00;94234.63;5142491;27;20203;-84
2021/07/09 03:55:40;;;;;;;17.23;8.07;;;;;;;12.33;100.00;94241.50;5142576;27;20193;-84
2021/07/09 03:58:07;;;;;;;15.53;8.63;;;;;;;12.34;100.00;94230.81;5138952;27;20425;-84
2021/07/09 04:00:35;;;;;;;15.47;7.67;;;;;;;12.35;100.00;94235.03;5140396;27;20486;-83
2021/07/09 04:03:01;;;;;;;15.10;7.40;;;;;;;12.30;100.00;94234.84;5138894;27;20666;-83
2021/07/09 04:05:27;;;;;;;18.27;7.87;;;;;;;12.31;100.00;94233.84;5138718;27;20328;-83
2021/07/09 04:07:54;;;;;;;15.05;7.18;;;;;;;12.32;100.00;94239.88;5140488;27;20647;-82
2021/07/09 04:10:21;;;;;;;14.60;7.80;;;;;;;12.38;100.00;94239.88;5145893;27;20224;-83
2021/07/09 04:12:48;;;;;;;15.43;7.70;;;;;;;12.35;100.00;94242.88;5145475;27;20197;-84
2021/07/09 04:15:15;;;;;;;12.13;6.53;;;;;;;12.39;100.00;94244.13;5141336;27;20193;-83
2021/07/09 04:17:42;;;;;;;18.13;8.00;;;;;;;12.39;100.00;94251.97;5137385;27;20204;-83
2021/07/09 04:20:10;;;;;;;18.17;8.10;;;;;;;12.39;100.00;94246.75;5140605;27;20228;-84
2021/07/09 04:22:37;;;;;;;12.77;6.80;;;;;;;12.34;100.00;94254.38;5141597;27;20212;-83
2021/07/09 04:25:05;;;;;;;11.40;6.63;;;;;;;12.43;100.00;94260.22;5142734;27;20200;-83
2021/07/09 04:27:32;;;;;;;12.80;6.33;;;;;;;12.43;100.00;94257.63;5140017;27;20245;-82
2021/07/09 04:29:58;;;;;;;12.90;6.87;;;;;;;12.39;100.00;94262.44;5139267;27;20228;-84
2021/07/09 04:32:25;;;;;;;12.37;7.17;;;;;;;12.45;100.00;94266.06;5141192;27;20656;-82
2021/07/09 04:34:53;;;;;;;11.23;6.80;;;;;;;12.46;100.00;94265.06;5138928;27;20192;-82
2021/07/09 04:37:19;;;;;;;13.43;6.13;;;;;;;12.36;100.00;94268.09;5140457;27;20287;-82
2021/07/09 04:39:46;;;;;;;16.97;6.17;;;;;;;12.41;100.00;94270.09;5141277;27;20629;-83
2021/07/09 04:42:12;;;;;;;15.13;6.17;;;;;;;12.47;100.00;94268.50;5140717;27;20197;-82
2021/07/09 04:44:39;;;;;;;12.10;6.40;;;;;;;12.38;100.00;94270.50;5139436;27;20193;-83
2021/07/09 04:47:06;;;;;;;10.33;6.20;;;;;;;12.40;100.00;94260.63;5141906;27;20196;-83
2021/07/09 04:49:32;;;;;;;9.17;5.97;;;;;;;12.40;100.00;94273.72;5141876;27;20670;-83
2021/07/09 04:52:00;;;;;;;11.97;6.37;;;;;;;12.40;100.00;94268.47;5141679;27;20201;-82
2021/07/09 04:54:27;;;;;;;13.60;5.90;;;;;;;12.40;100.00;94269.28;5141864;27;20244;-82
2021/07/09 04:56:53;;;;;;;10.57;6.30;;;;;;;12.40;100.00;94276.34;5140536;27;20196;-83
2021/07/09 04:59:20;;;;;;;19.10;6.97;;;;;;;12.40;100.00;94271.91;5141942;27;20201;-81
2021/07/09 05:01:46;;;;;;;9.63;5.73;;;;;;;12.37;100.00;94277.56;5137980;27;20230;-82
2021/07/09 05:04:12;;;;;;;11.33;5.73;;;;;;;12.43;100.00;94273.31;5139509;27;20229;-84
2021/07/09 05:06:39;;;;;;;9.40;6.00;;;;;;;12.47;100.00;94285.00;5138679;27;20604;-83
2021/07/09 05:09:09;;;;;;;11.97;5.80;;;;;;;12.45;100.00;94287.03;5141636;27;20200;-83
2021/07/09 05:11:37;;;;;;;11.37;5.93;;;;;;;12.50;100.00;94281.19;5143393;27;20203;-83
2021/07/09 05:14:04;;;;;;;9.77;5.47;;;;;;;12.49;100.00;94277.78;5145830;27;20208;-82
2021/07/09 05:16:31;;;;;;;11.30;5.90;;;;;;;12.51;100.00;94275.75;5148097;27;20215;-82
2021/07/09 05:18:57;;;;;;;10.95;5.75;;;;;;;12.56;100.00;94286.44;5147528;27;20196;-83
2021/07/09 05:21:25;;;;;;;11.23;6.00;;;;;;;12.48;100.00;94285.84;5144018;27;20221;-82
2021/07/09 05:23:51;;;;;;;11.30;4.90;;;;;;;12.47;100.00;94290.25;5144526;27;20270;-81
2021/07/09 05:26:20;;;;;;;8.80;5.30;;;;;;;12.48;100.00;94291.06;5141593;27;20197;-81
2021/07/09 05:28:46;;;;;;;8.53;5.40;;;;;;;12.46;100.00;94293.88;5141382;27;20730;-82
2021/07/09 05:31:12;;;;;;;10.93;5.00;;;;;;;12.45;100.00;94302.72;5143117;27;20651;-81
2021/07/09 05:33:39;;;;;;;8.43;5.57;;;;;;;12.44;100.00;94303.75;5139997;27;20200;-82
2021/07/09 05:36:06;;;;;;;7.13;5.20;;;;;;;12.44;100.00;94306.38;5139675;27;20328;-82
2021/07/09 05:38:32;;;;;;;9.67;6.33;;;;;;;12.52;100.00;94310.59;5143244;27;20210;-82
2021/07/09 05:40:58;;;;;;;13.40;5.65;;;;;;;12.51;100.00;94301.16;5139973;27;20649;-81
2021/07/09 05:43:26;;;;;;;7.77;4.80;;;;;;;12.47;100.00;94311.19;5142687;27;20567;-81
2021/07/09 05:45:53;;;;;;;10.27;6.07;;;;;;;12.50;100.00;94302.16;5140756;27;20667;-82
2021/07/09 05:48:19;;;;;;;10.77;5.67;;;;;;;12.55;100.00;94305.78;5141468;27;20208;-81
2021/07/09 05:50:45;;;;;;;10.10;5.20;;;;;;;12.61;100.00;94308.59;5142259;27;20197;-82
2021/07/09 05:53:12;;;;;;;10.03;5.50;;;;;;;12.68;100.00;94312.06;5141361;27;20196;-82
2021/07/09 05:55:39;;;;;;;7.55;5.18;;;;;;;12.75;100.00;94312.84;5141088;27;20196;-81
2021/07/09 05:58:05;;;;;;;10.90;5.43;;;;;;;12.73;100.00;94309.63;5142648;27;20219;-81
2021/07/09 06:00:35;;;;;;;8.00;4.90;;;;;;;12.80;100.00;94305.19;5139734;27;20220;-81
2021/07/09 06:03:02;;;;;;;6.82;4.43;;;;;;;12.86;100.00;94308.84;5139911;28;20205;-81
2021/07/09 06:05:28;;;;;;;8.50;4.93;;;;;;;12.80;100.00;94315.69;5142067;28;20601;-80
2021/07/09 06:07:54;;;;;;;9.13;5.43;;;;;;;12.89;100.00;94319.72;5143334;28;20201;-81
2021/07/09 06:10:21;;;;;;;9.40;4.38;;;;;;;12.89;100.00;94321.53;5142659;28;20200;-81
2021/07/09 06:12:48;;;;;;;9.80;4.70;;;;;;;12.89;100.00;94324.16;5141829;28;20197;-80
2021/07/09 06:15:14;;;;;;;8.57;4.40;;;;;;;12.80;100.00;94325.34;5142808;28;20201;-82
2021/07/09 06:17:42;;;;;;;8.07;4.13;;;;;;;12.91;100.00;94322.94;5138260;28;20208;-81
2021/07/09 06:20:09;;;;;;;7.90;4.30;;;;;;;12.84;100.00;94330.00;5143124;28;20609;-80
2021/07/09 06:22:35;;;;;;;12.00;4.75;;;;;;;12.92;100.00;94329.81;5142861;28;20196;-80
2021/07/09 06:25:02;;;;;;;9.20;4.67;;;;;;;12.85;100.00;94326.38;5141338;28;20208;-81
2021/07/09 06:27:28;;;;;;;7.78;4.47;;;;;;;12.92;100.00;94335.06;5138061;28;20253;-83
2021/07/09 06:29:55;;;;;;;7.07;4.70;;;;;;;13.00;100.00;94341.91;5138340;28;20229;-82
2021/07/09 06:32:21;;;;;;;7.27;4.23;;;;;;;13.15;100.00;94344.31;5139786;28;20877;-82
2021/07/09 06:34:49;;;;;;;8.27;4.13;;;;;;;13.23;100.00;94346.75;5139566;28;20197;-82
2021/07/09 06:37:15;;;;;;;7.20;4.00;;;;;;;13.30;100.00;94342.28;5140396;28;20250;-81
2021/07/09 06:39:42;;;;;;;8.50;4.40;;;;;;;13.55;100.00;94341.69;5135666;28;20613;-81
2021/07/09 06:42:08;;;;;;;7.95;3.67;;;;;;;13.69;100.00;94342.50;5138318;28;20220;-82
2021/07/09 06:44:35;;;;;;;4.97;3.78;;;;;;;14.01;100.00;94345.22;5135523;28;20716;-82
2021/07/09 06:49:42;;;;;;;9.57;3.70;;;;;;;14.53;100.00;94337.31;5132934;28;20201;-81
2021/07/09 06:52:12;;;;;;;4.38;3.00;;;;;;;15.08;100.00;94342.03;5135243;28;20201;-81
2021/07/09 06:54:38;;;;;;;6.07;3.20;;;;;;;15.57;100.00;94334.31;5136113;28;20563;-80
2021/07/09 06:57:05;;;;;;;6.65;2.92;;;;;;;15.48;100.00;94341.69;5133218;28;20429;-80
2021/07/09 06:59:31;;;;;;;4.68;2.85;;;;;;;15.25;100.00;94347.56;5138633;27;20196;-81
2021/07/09 07:01:59;;;;;;;5.57;2.50;;;;;;;15.57;100.00;94345.69;5138351;27;20281;-80
2021/07/09 07:04:26;;;;;;;4.10;2.90;;;;;;;15.47;100.00;94347.97;5140075;27;20292;-81
2021/07/09 07:06:55;;;;;;;20.33;2.95;;;;;;;15.22;100.00;94350.63;5139826;27;20275;-79
2021/07/09 07:09:23;;;;;;;6.15;2.92;;;;;;;14.74;100.00;94358.03;5138843;27;20225;-79
2021/07/09 07:11:53;;;;;;;8.52;3.10;;;;;;;14.37;100.00;94347.31;5137635;27;20249;-80
2021/07/09 07:14:21;;;;;;;5.75;3.42;;;;;;;14.47;100.00;94353.91;5138076;27;20204;-78
2021/07/09 07:16:48;;;;;;;4.15;2.92;;;;;;;14.54;100.00;94354.69;5137437;27;20719;-82
2021/07/09 07:19:14;;;;;;;8.57;3.25;;;;;;;15.10;100.00;94351.31;5138451;27;20203;-79
2021/07/09 07:21:41;;;;;;;6.00;3.17;;;;;;;15.32;100.00;94353.56;5137960;27;20281;-79
2021/07/09 07:24:07;;;;;;;5.03;3.40;;;;;;;15.30;100.00;94345.88;5138846;27;20219;-79
2021/07/09 07:26:35;;;;;;;4.53;2.95;;;;;;;15.41;100.00;94349.66;5138218;27;20336;-79
2021/07/09 07:29:01;;;;;;;7.78;3.35;;;;;;;15.07;100.00;94356.19;5136467;27;20452;-78
2021/07/09 07:31:30;;;;;;;12.85;3.38;;;;;;;15.30;100.00;94351.16;5137695;27;20196;-80
2021/07/09 07:33:57;;;;;;;4.82;2.90;;;;;;;15.71;100.00;94356.88;5137798;27;20203;-79
2021/07/09 07:36:24;;;;;;;7.43;3.25;;;;;;;16.08;100.00;94354.28;5137394;27;20231;-76
2021/07/09 07:38:50;;;;;;;4.15;2.40;;;;;;;15.57;100.00;94358.00;5138009;27;20208;-81
2021/07/09 07:41:18;;;;;;;6.67;3.10;;;;;;;15.74;100.00;94356.44;5135232;27;20457;-80
2021/07/09 07:43:46;;;;;;;11.15;3.33;;;;;;;15.67;100.00;94358.31;5136583;27;20196;-79
2021/07/09 07:46:14;;;;;;;4.88;3.08;;;;;;;16.01;100.00;94361.47;5139725;27;20204;-82
2021/07/09 07:48:41;;;;;;;6.32;3.00;;;;;;;16.20;100.00;94367.53;5141153;27;20208;-81
2021/07/09 07:51:07;;;;;;;5.32;2.90;;;;;;;16.39;100.00;94363.06;5139677;27;20230;-82
2021/07/09 07:53:36;;;;;;;4.45;2.50;;;;;;;16.80;100.00;94358.84;5141507;27;20197;-80
2021/07/09 07:56:03;;;;;;;8.88;3.08;;;;;;;16.31;100.00;94356.25;5139961;27;20197;-81
2021/07/09 07:58:30;;;;;;;5.88;3.28;;;;;;;16.15;100.00;94362.13;5143535;27;20196;-81
2021/07/09 08:00:58;;;;;;;7.93;3.20;;;;;;;16.43;100.00;94361.56;5141191;27;20231;-82
2021/07/09 08:03:24;;;;;;;5.50;2.97;;;;;;;16.48;100.00;94374.09;5138972;27;20204;-82
2021/07/09 08:05:51;;;;;;;10.40;3.03;;;;;;;16.59;100.00;94358.34;5137363;27;20197;-77
2021/07/09 08:08:18;;;;;;;8.30;2.97;;;;;;;16.93;100.00;94369.25;5123019;27;20201;-78
2021/07/09 08:10:44;;;;;;;8.48;2.60;;;;;;;16.61;100.00;94366.81;5126387;27;20652;-78
2021/07/09 08:13:10;;;;;;;3.83;2.88;;;;;;;16.92;100.00;94372.09;5115602;28;20216;-79
2021/07/09 08:15:37;;;;;;;4.82;3.10;;;;;;;16.85;100.00;94361.66;5117798;28;20194;-80
2021/07/09 08:18:05;;;;;;;6.53;2.90;;;;;;;16.98;100.00;94372.00;5116696;28;20227;-80
2021/07/09 08:20:32;;;;;;;6.80;2.60;;;;;;;17.61;100.00;94359.25;5120747;28;20204;-80
2021/07/09 08:22:59;;;;;;;4.63;2.70;;;;;;;17.15;100.00;94360.81;5119424;28;20193;-80
2021/07/09 08:25:25;;;;;;;4.85;2.60;;;;;;;17.45;100.00;94355.44;5120759;28;20655;-81
2021/07/09 08:27:52;;;;;;;5.55;2.72;;;;;;;17.42;100.00;94365.66;5120119;28;20250;-79
2021/07/09 08:30:19;;;;;;;7.75;3.20;;;;;;;17.18;100.00;94365.63;5119397;28;20225;-81
2021/07/09 08:32:45;;;;;;;5.97;3.47;;;;;;;16.92;100.00;94367.66;5119256;28;20205;-80
2021/07/09 08:35:13;;;;;;;4.60;2.80;;;;;;;16.99;100.00;94371.00;5117797;28;20629;-80
2021/07/09 08:37:41;;;;;;;10.23;3.35;;;;;;;17.57;100.00;94366.03;5117848;28;20246;-82
2021/07/09 08:40:09;;;;;;;5.38;3.10;;;;;;;17.24;100.00;94367.38;5116193;28;20205;-80
2021/07/09 08:42:37;;;;;;;6.55;2.78;;;;;;;17.48;100.00;94364.75;5117168;28;20334;-80
2021/07/09 08:45:05;;;;;;;6.63;3.05;;;;;;;17.55;100.00;94371.56;5120702;28;20197;-79
2021/07/09 08:47:33;;;;;;;6.70;2.95;;;;;;;17.37;100.00;94376.94;5125557;27;20197;-81
2021/07/09 08:50:01;;;;;;;10.68;2.88;;;;;;;17.72;100.00;94374.31;5130058;27;20251;-81
2021/07/09 08:52:29;;;;;;;9.40;3.00;;;;;;;17.20;100.00;94371.50;5122025;28;20236;-81
2021/07/09 08:54:55;;;;;;;5.60;3.42;;;;;;;17.18;100.00;94376.19;5121778;28;20201;-81
2021/07/09 08:57:22;;;;;;;9.40;3.30;;;;;;;17.66;100.00;94377.06;5117954;28;20254;-81
2021/07/09 08:59:48;;;;;;;5.72;2.80;;;;;;;17.81;100.00;94379.25;5116287;28;20201;-81
2021/07/09 09:02:25;;;;;;;9.02;2.88;;;;;;;18.23;100.00;94376.47;5116870;28;20246;-81
2021/07/09 09:04:53;;;;;;;6.55;2.95;;;;;;;18.02;100.00;94372.59;5119178;28;20274;-81
2021/07/09 09:07:19;;;;;;;5.20;3.00;;;;;;;18.20;100.00;94376.94;5128816;28;20830;-81
2021/07/09 09:09:48;;;;;;;6.72;3.03;;;;;;;18.81;100.00;94377.31;5116661;28;20246;-80
2021/07/09 09:12:16;;;;;;;5.30;2.42;;;;;;;18.57;100.00;94381.88;5123828;27;20193;-80
2021/07/09 09:14:45;;;;;;;5.43;2.78;;;;;;;18.51;100.00;94388.94;5143030;27;20201;-80
2021/07/09 09:17:27;;;;;;;5.18;2.72;;;;;;;18.12;100.00;94386.84;5138986;27;20324;-80
2021/07/09 09:20:14;;;;;;;7.25;2.55;;;;;;;18.55;100.00;94383.97;5146690;27;20619;-81
2021/07/09 09:23:01;;;;;;;6.20;2.58;;;;;;;18.12;100.00;94380.75;5137564;27;20221;-80
2021/07/09 09:25:31;;;;;;;5.93;3.03;;;;;;;18.23;100.00;94381.75;5144391;27;20203;-79
2021/07/09 09:28:04;;;;;;;4.25;2.67;;;;;;;17.74;100.00;94390.72;5145039;27;20643;-80
2021/07/09 09:30:32;;;;;;;5.60;2.58;;;;;;;17.68;100.00;94388.19;5145579;27;20226;-82
2021/07/09 09:33:02;;;;;;;4.53;2.40;;;;;;;17.81;100.00;94390.59;5143198;27;20200;-82
2021/07/09 09:35:30;;;;;;;4.32;2.42;;;;;;;18.03;100.00;94382.91;5142983;27;20200;-81
2021/07/09 09:37:59;;;;;;;3.67;2.50;;;;;;;18.11;100.00;94385.22;5139996;27;20192;-81
2021/07/09 09:40:27;;;;;;;6.72;2.47;;;;;;;18.57;100.00;94390.66;5142452;27;20196;-81
2021/07/09 09:42:56;;;;;;;7.40;2.83;;;;;;;19.10;97.00;94395.84;5137332;27;20277;-81
2021/07/09 09:45:25;;;;;;;5.43;2.78;;;;;;;18.63;97.98;94391.53;5139103;27;20192;-79
2021/07/09 09:47:52;;;;;;;4.60;2.80;;;;;;;18.24;100.00;94383.38;5140692;27;20689;-80
2021/07/09 09:50:21;;;;;;;3.92;2.70;;;;;;;18.29;100.00;94386.13;5138795;27;20193;-82
2021/07/09 09:52:49;;;;;;;7.25;2.50;;;;;;;18.43;100.00;94390.09;5139294;27;20200;-80
2021/07/09 09:55:20;;;;;;;4.93;2.30;;;;;;;18.33;96.33;94389.09;5139917;27;20193;-81
2021/07/09 09:57:48;;;;;;;5.20;2.47;;;;;;;18.82;98.35;94385.03;5139030;27;20600;-83
2021/07/09 10:00:29;;;;;;;5.15;2.58;;;;;;;18.89;94.98;94384.13;5138053;27;20249;-82
2021/07/09 10:02:56;;;;;;;5.35;2.63;;;;;;;18.99;99.31;94389.59;5138264;27;20231;-82
2021/07/09 10:05:22;;;;;;;3.38;2.20;;;;;;;19.34;98.81;94380.66;5134428;28;20230;-84
2021/07/09 10:07:52;;;;;;;6.22;2.60;;;;;;;19.52;92.58;94377.78;5135012;28;20273;-81
2021/07/09 10:10:19;;;;;;;3.53;2.20;;;;;;;19.76;88.97;94378.41;5134659;28;20548;-82
2021/07/09 10:12:49;;;;;;;4.50;2.88;;;;;;;19.55;89.49;94377.28;5136280;28;20197;-82
2021/07/09 10:15:17;;;;;;;3.38;2.40;;;;;;;19.13;90.87;94376.84;5136025;28;20205;-80
2021/07/09 10:17:48;;;;;;;6.07;2.45;;;;;;;18.92;93.64;94376.50;5137038;28;20204;-81
2021/07/09 10:20:16;;;;;;;4.28;2.50;;;;;;;19.21;91.18;94371.19;5136037;28;20196;-81
2021/07/09 10:22:43;;;;;;;7.93;2.80;;;;;;;19.52;97.65;94372.47;5135023;28;20228;-81
2021/07/09 10:25:10;;;;;;;4.00;2.72;;;;;;;19.25;84.53;94371.50;5135537;28;20692;-83
2021/07/09 10:27:37;;;;;;;10.68;2.92;;;;;;;18.91;89.54;94369.59;5134932;28;20205;-81
2021/07/09 10:30:05;;;;;;;7.30;3.30;;;;;;;19.18;87.90;94366.34;5136813;28;20650;-81
2021/07/09 10:32:33;;;;;;;5.32;3.05;;;;;;;19.01;91.18;94363.69;5134542;28;20201;-81
2021/07/09 10:35:02;;;;;;;4.22;2.70;;;;;;;19.55;90.86;94368.53;5139414;27;20716;-82
2021/07/09 10:37:29;;;;;;;3.83;2.53;;;;;;;18.94;86.24;94365.69;5139009;27;20197;-83
2021/07/09 10:40:10;;;;;;;5.32;2.75;;;;;;;18.47;91.46;94366.66;5140094;27;20196;-84
2021/07/09 10:42:41;;;;;;;4.00;2.88;;;;;;;18.43;93.26;94368.94;5140096;27;20314;-79
2021/07/09 10:45:14;;;;;;;5.00;2.90;;;;;;;18.30;97.63;94371.84;5139179;27;20199;-83
2021/07/09 10:47:55;;;;;;;4.45;2.88;;;;;;;18.21;97.73;94370.63;5139346;27;20201;-81
2021/07/09 10:50:38;;;;;;;3.83;3.10;;;;;;;18.22;100.00;94362.47;5139898;27;20196;-82
2021/07/09 10:53:07;;;;;;;7.07;3.10;;;;;;;18.58;98.56;94368.44;5138394;27;20246;-82
2021/07/09 10:55:51;;;;;;;3.35;2.67;;;;;;;18.85;97.72;94367.91;5138851;27;20558;-80
2021/07/09 10:58:33;;;;;;;8.48;3.92;;;;;;;19.33;100.00;94368.44;5138889;27;20197;-81
2021/07/09 11:01:10;;;;;;;8.38;3.30;;;;;;;20.07;92.84;94370.13;5138046;27;20287;-83
2021/07/09 11:03:38;;;;;;;4.68;2.80;;;;;;;20.81;88.35;94355.63;5138424;27;20315;-80
2021/07/09 11:06:08;;;;;;;4.40;2.28;;;;;;;20.67;82.92;94353.34;5137994;27;20200;-81
2021/07/09 11:08:56;;;;;;;6.75;3.15;;;;;;;20.52;79.69;94353.16;5139150;27;20516;-83
2021/07/09 11:11:34;;;;;;;4.53;2.55;;;;;;;20.14;84.42;94352.19;5124397;27;20604;-83
2021/07/09 11:14:02;;;;;;;3.67;2.50;;;;;;;19.68;88.77;94365.53;5138481;27;20197;-81
2021/07/09 11:16:31;;;;;;;4.50;2.50;;;;;;;19.39;87.02;94365.66;5138775;27;20253;-81
2021/07/09 11:19:03;;;;;;;2.83;1.95;;;;;;;19.36;84.12;94362.69;5138296;27;20288;-82
2021/07/09 11:21:57;;;;;;;4.70;2.10;;;;;;;19.85;72.32;94360.28;5137642;27;20199;-82
2021/07/09 11:24:27;;;;;;;7.95;2.40;;;;;;;19.65;74.86;94354.63;5137902;27;20193;-83
2021/07/09 11:26:55;;;;;;;3.20;2.00;;;;;;;19.03;79.26;94358.97;5138563;27;20193;-83
2021/07/09 11:29:27;;;;;;;2.97;2.33;;;;;;;18.98;85.09;94353.56;5143521;27;20224;-82